sensor_id;sensor_type;location;lat;lon;timestamp;P1;durP1;ratioP1;P2;durP2;ratioP2
21424;SDS011;10873;51.132;16.848;2023-02-14T00:01:15;6.38;;;4.85;;
21424;SDS011;10873;51.132;16.848;2023-02-14T00:03:41;6.63;;;4.70;;
21424;SDS011;10873;51.132;16.848;2023-02-14T00:06:08;8.05;;;5.72;;
21424;SDS011;10873;51.132;16.848;2023-02-14T00:08:35;11.98;;;9.15;;
21424;SDS011;10873;51.132;16.848;2023-02-14T00:11:02;18.38;;;13.50;;
21424;SDS011;10873;51.132;16.848;2023-02-14T00:13:28;19.02;;;14.23;;
21424;SDS011;10873;51.132;16.848;2023-02-14T00:15:54;17.75;;;13.65;;
21424;SDS011;10873;51.132;16.848;2023-02-14T00:18:22;18.55;;;13.02;;
21424;SDS011;10873;51.132;16.848;2023-02-14T00:21:08;16.25;;;12.25;;
21424;SDS011;10873;51.132;16.848;2023-02-14T00:23:34;15.70;;;12.13;;
21424;SDS011;10873;51.132;16.848;2023-02-14T00:26:00;14.43;;;11.07;;
21424;SDS011;10873;51.132;16.848;2023-02-14T00:28:26;13.63;;;11.20;;
21424;SDS011;10873;51.132;16.848;2023-02-14T00:30:52;14.07;;;10.65;;
21424;SDS011;10873;51.132;16.848;2023-02-14T00:33:22;15.50;;;9.55;;
21424;SDS011;10873;51.132;16.848;2023-02-14T00:35:48;11.93;;;9.35;;
21424;SDS011;10873;51.132;16.848;2023-02-14T00:38:14;11.13;;;8.57;;
21424;SDS011;10873;51.132;16.848;2023-02-14T00:40:40;10.23;;;8.35;;
21424;SDS011;10873;51.132;16.848;2023-02-14T00:43:06;10.05;;;8.52;;
21424;SDS011;10873;51.132;16.848;2023-02-14T00:45:32;8.73;;;7.28;;
21424;SDS011;10873;51.132;16.848;2023-02-14T00:47:58;9.63;;;7.13;;
21424;SDS011;10873;51.132;16.848;2023-02-14T00:50:25;8.05;;;6.47;;
21424;SDS011;10873;51.132;16.848;2023-02-14T00:52:51;8.45;;;6.60;;
21424;SDS011;10873;51.132;16.848;2023-02-14T00:55:17;8.68;;;6.80;;
21424;SDS011;10873;51.132;16.848;2023-02-14T00:57:43;8.75;;;6.15;;
21424;SDS011;10873;51.132;16.848;2023-02-14T01:00:10;7.82;;;6.38;;
21424;SDS011;10873;51.132;16.848;2023-02-14T01:02:37;7.70;;;5.75;;
21424;SDS011;10873;51.132;16.848;2023-02-14T01:05:04;7.43;;;5.90;;
21424;SDS011;10873;51.132;16.848;2023-02-14T01:07:31;6.55;;;5.15;;
21424;SDS011;10873;51.132;16.848;2023-02-14T01:09:57;7.15;;;5.47;;
21424;SDS011;10873;51.132;16.848;2023-02-14T01:12:23;6.32;;;5.28;;
21424;SDS011;10873;51.132;16.848;2023-02-14T01:14:49;6.57;;;5.20;;
21424;SDS011;10873;51.132;16.848;2023-02-14T01:17:15;7.63;;;5.50;;
21424;SDS011;10873;51.132;16.848;2023-02-14T01:19:42;6.57;;;5.35;;
21424;SDS011;10873;51.132;16.848;2023-02-14T01:22:08;6.72;;;4.93;;
21424;SDS011;10873;51.132;16.848;2023-02-14T01:24:36;5.80;;;5.18;;
21424;SDS011;10873;51.132;16.848;2023-02-14T01:27:02;5.70;;;4.78;;
21424;SDS011;10873;51.132;16.848;2023-02-14T01:29:28;5.57;;;4.75;;
21424;SDS011;10873;51.132;16.848;2023-02-14T01:31:54;5.95;;;4.78;;
21424;SDS011;10873;51.132;16.848;2023-02-14T01:34:20;6.22;;;4.72;;
21424;SDS011;10873;51.132;16.848;2023-02-14T01:36:46;6.07;;;4.57;;
21424;SDS011;10873;51.132;16.848;2023-02-14T01:39:13;7.15;;;4.38;;
21424;SDS011;10873;51.132;16.848;2023-02-14T01:41:41;5.40;;;4.28;;
21424;SDS011;10873;51.132;16.848;2023-02-14T01:47:22;5.82;;;4.60;;
21424;SDS011;10873;51.132;16.848;2023-02-14T01:49:50;5.28;;;4.55;;
21424;SDS011;10873;51.132;16.848;2023-02-14T01:52:20;6.40;;;4.53;;
21424;SDS011;10873;51.132;16.848;2023-02-14T01:54:51;4.93;;;4.28;;
21424;SDS011;10873;51.132;16.848;2023-02-14T01:57:21;5.07;;;4.05;;
21424;SDS011;10873;51.132;16.848;2023-02-14T01:59:52;4.90;;;4.30;;
21424;SDS011;10873;51.132;16.848;2023-02-14T02:02:42;4.82;;;3.83;;
21424;SDS011;10873;51.132;16.848;2023-02-14T02:05:08;5.22;;;3.78;;
21424;SDS011;10873;51.132;16.848;2023-02-14T02:07:35;6.43;;;4.40;;
21424;SDS011;10873;51.132;16.848;2023-02-14T02:10:02;5.35;;;3.90;;
21424;SDS011;10873;51.132;16.848;2023-02-14T02:12:32;4.78;;;4.07;;
21424;SDS011;10873;51.132;16.848;2023-02-14T02:15:00;4.75;;;3.75;;
21424;SDS011;10873;51.132;16.848;2023-02-14T02:17:27;5.45;;;3.90;;
21424;SDS011;10873;51.132;16.848;2023-02-14T02:23:10;4.55;;;3.58;;
21424;SDS011;10873;51.132;16.848;2023-02-14T02:29:32;4.43;;;3.60;;
21424;SDS011;10873;51.132;16.848;2023-02-14T02:32:35;4.63;;;3.70;;
21424;SDS011;10873;51.132;16.848;2023-02-14T02:38:15;4.97;;;4.10;;
21424;SDS011;10873;51.132;16.848;2023-02-14T02:40:56;3.97;;;3.50;;
21424;SDS011;10873;51.132;16.848;2023-02-14T02:43:30;4.85;;;3.72;;
21424;SDS011;10873;51.132;16.848;2023-02-14T02:46:07;3.75;;;3.35;;
21424;SDS011;10873;51.132;16.848;2023-02-14T02:48:56;3.67;;;3.20;;
21424;SDS011;10873;51.132;16.848;2023-02-14T02:51:32;3.55;;;3.20;;
21424;SDS011;10873;51.132;16.848;2023-02-14T02:54:26;3.40;;;3.10;;
21424;SDS011;10873;51.132;16.848;2023-02-14T02:56:58;3.50;;;3.20;;
21424;SDS011;10873;51.132;16.848;2023-02-14T02:59:30;3.60;;;3.08;;
21424;SDS011;10873;51.132;16.848;2023-02-14T03:02:02;3.63;;;3.30;;
21424;SDS011;10873;51.132;16.848;2023-02-14T03:04:34;3.45;;;3.13;;
21424;SDS011;10873;51.132;16.848;2023-02-14T03:07:23;4.65;;;3.28;;
21424;SDS011;10873;51.132;16.848;2023-02-14T03:10:05;3.20;;;2.90;;
21424;SDS011;10873;51.132;16.848;2023-02-14T03:15:29;3.47;;;3.17;;
21424;SDS011;10873;51.132;16.848;2023-02-14T03:18:06;4.15;;;3.15;;
21424;SDS011;10873;51.132;16.848;2023-02-14T03:20:41;3.80;;;3.28;;
21424;SDS011;10873;51.132;16.848;2023-02-14T03:23:20;3.67;;;2.72;;
21424;SDS011;10873;51.132;16.848;2023-02-14T03:25:54;3.72;;;3.00;;
21424;SDS011;10873;51.132;16.848;2023-02-14T03:28:27;3.00;;;2.70;;
21424;SDS011;10873;51.132;16.848;2023-02-14T03:31:01;3.47;;;3.17;;
21424;SDS011;10873;51.132;16.848;2023-02-14T03:33:33;3.13;;;2.83;;
21424;SDS011;10873;51.132;16.848;2023-02-14T03:36:07;3.30;;;3.00;;
21424;SDS011;10873;51.132;16.848;2023-02-14T03:38:40;3.72;;;3.17;;
21424;SDS011;10873;51.132;16.848;2023-02-14T03:41:10;4.35;;;3.38;;
21424;SDS011;10873;51.132;16.848;2023-02-14T03:43:40;3.40;;;2.90;;
21424;SDS011;10873;51.132;16.848;2023-02-14T03:46:10;3.00;;;2.67;;
21424;SDS011;10873;51.132;16.848;2023-02-14T03:48:41;3.20;;;2.90;;
21424;SDS011;10873;51.132;16.848;2023-02-14T03:51:09;3.55;;;3.05;;
21424;SDS011;10873;51.132;16.848;2023-02-14T03:53:39;2.92;;;2.63;;
21424;SDS011;10873;51.132;16.848;2023-02-14T03:56:09;3.35;;;2.90;;
21424;SDS011;10873;51.132;16.848;2023-02-14T03:58:40;3.92;;;3.33;;
21424;SDS011;10873;51.132;16.848;2023-02-14T04:01:18;3.28;;;2.70;;
21424;SDS011;10873;51.132;16.848;2023-02-14T04:03:47;3.10;;;2.80;;
21424;SDS011;10873;51.132;16.848;2023-02-14T04:06:15;4.90;;;3.00;;
21424;SDS011;10873;51.132;16.848;2023-02-14T04:08:43;3.40;;;3.10;;
21424;SDS011;10873;51.132;16.848;2023-02-14T04:11:09;4.25;;;2.90;;
21424;SDS011;10873;51.132;16.848;2023-02-14T04:13:36;3.17;;;2.70;;
21424;SDS011;10873;51.132;16.848;2023-02-14T04:16:03;3.40;;;2.90;;
21424;SDS011;10873;51.132;16.848;2023-02-14T04:18:30;3.10;;;2.80;;
21424;SDS011;10873;51.132;16.848;2023-02-14T04:21:15;3.63;;;3.20;;
21424;SDS011;10873;51.132;16.848;2023-02-14T04:23:42;3.15;;;2.90;;
21424;SDS011;10873;51.132;16.848;2023-02-14T04:26:08;3.28;;;2.83;;
21424;SDS011;10873;51.132;16.848;2023-02-14T04:28:34;3.00;;;2.70;;
21424;SDS011;10873;51.132;16.848;2023-02-14T04:31:01;3.30;;;3.00;;
21424;SDS011;10873;51.132;16.848;2023-02-14T04:33:28;3.05;;;2.72;;
21424;SDS011;10873;51.132;16.848;2023-02-14T04:35:54;3.35;;;2.90;;
21424;SDS011;10873;51.132;16.848;2023-02-14T04:38:20;3.13;;;2.60;;
21424;SDS011;10873;51.132;16.848;2023-02-14T04:40:48;3.10;;;2.80;;
21424;SDS011;10873;51.132;16.848;2023-02-14T04:43:15;3.60;;;3.20;;
21424;SDS011;10873;51.132;16.848;2023-02-14T04:45:42;4.28;;;2.72;;
21424;SDS011;10873;51.132;16.848;2023-02-14T04:48:08;3.65;;;2.97;;
21424;SDS011;10873;51.132;16.848;2023-02-14T04:50:34;3.08;;;2.67;;
21424;SDS011;10873;51.132;16.848;2023-02-14T04:53:00;3.72;;;3.33;;
21424;SDS011;10873;51.132;16.848;2023-02-14T04:55:27;4.22;;;3.30;;
21424;SDS011;10873;51.132;16.848;2023-02-14T04:57:54;3.65;;;3.13;;
21424;SDS011;10873;51.132;16.848;2023-02-14T05:00:20;4.78;;;3.47;;
21424;SDS011;10873;51.132;16.848;2023-02-14T05:02:46;4.18;;;3.60;;
21424;SDS011;10873;51.132;16.848;2023-02-14T05:05:13;3.90;;;3.30;;
21424;SDS011;10873;51.132;16.848;2023-02-14T05:07:39;3.35;;;3.05;;
21424;SDS011;10873;51.132;16.848;2023-02-14T05:10:07;3.30;;;2.97;;
21424;SDS011;10873;51.132;16.848;2023-02-14T05:12:33;3.50;;;3.20;;
21424;SDS011;10873;51.132;16.848;2023-02-14T05:15:01;3.95;;;3.00;;
21424;SDS011;10873;51.132;16.848;2023-02-14T05:17:27;4.13;;;2.90;;
21424;SDS011;10873;51.132;16.848;2023-02-14T05:19:53;3.42;;;3.13;;
21424;SDS011;10873;51.132;16.848;2023-02-14T05:22:19;3.55;;;3.20;;
21424;SDS011;10873;51.132;16.848;2023-02-14T05:24:45;5.75;;;3.22;;
21424;SDS011;10873;51.132;16.848;2023-02-14T05:27:11;5.03;;;3.17;;
21424;SDS011;10873;51.132;16.848;2023-02-14T05:29:37;3.42;;;3.13;;
21424;SDS011;10873;51.132;16.848;2023-02-14T05:32:05;3.55;;;3.05;;
21424;SDS011;10873;51.132;16.848;2023-02-14T05:34:31;3.25;;;2.95;;
21424;SDS011;10873;51.132;16.848;2023-02-14T05:36:57;3.70;;;2.70;;
21424;SDS011;10873;51.132;16.848;2023-02-14T05:39:23;3.88;;;3.40;;
21424;SDS011;10873;51.132;16.848;2023-02-14T05:41:49;3.00;;;2.70;;
21424;SDS011;10873;51.132;16.848;2023-02-14T05:44:15;3.78;;;2.85;;
21424;SDS011;10873;51.132;16.848;2023-02-14T05:46:40;3.40;;;3.10;;
21424;SDS011;10873;51.132;16.848;2023-02-14T05:49:08;3.10;;;2.80;;
21424;SDS011;10873;51.132;16.848;2023-02-14T05:51:34;4.25;;;3.35;;
21424;SDS011;10873;51.132;16.848;2023-02-14T05:54:00;3.40;;;3.10;;
21424;SDS011;10873;51.132;16.848;2023-02-14T05:56:26;6.63;;;3.17;;
21424;SDS011;10873;51.132;16.848;2023-02-14T05:58:52;3.30;;;3.00;;
21424;SDS011;10873;51.132;16.848;2023-02-14T06:01:18;3.95;;;3.22;;
21424;SDS011;10873;51.132;16.848;2023-02-14T06:03:44;5.38;;;2.70;;
21424;SDS011;10873;51.132;16.848;2023-02-14T06:06:11;3.97;;;2.95;;
21424;SDS011;10873;51.132;16.848;2023-02-14T06:08:37;5.40;;;2.70;;
21424;SDS011;10873;51.132;16.848;2023-02-14T06:11:03;4.13;;;2.88;;
21424;SDS011;10873;51.132;16.848;2023-02-14T06:13:30;4.18;;;3.13;;
21424;SDS011;10873;51.132;16.848;2023-02-14T06:15:55;4.07;;;2.65;;
21424;SDS011;10873;51.132;16.848;2023-02-14T06:18:22;3.13;;;2.83;;
21424;SDS011;10873;51.132;16.848;2023-02-14T06:20:51;5.55;;;2.70;;
21424;SDS011;10873;51.132;16.848;2023-02-14T06:23:19;4.60;;;3.50;;
21424;SDS011;10873;51.132;16.848;2023-02-14T06:25:45;13.98;;;4.32;;
21424;SDS011;10873;51.132;16.848;2023-02-14T06:28:11;15.40;;;4.78;;
21424;SDS011;10873;51.132;16.848;2023-02-14T06:30:37;13.38;;;4.72;;
21424;SDS011;10873;51.132;16.848;2023-02-14T06:33:03;10.05;;;4.68;;
21424;SDS011;10873;51.132;16.848;2023-02-14T06:35:29;6.63;;;4.47;;
21424;SDS011;10873;51.132;16.848;2023-02-14T06:37:55;5.85;;;4.68;;
21424;SDS011;10873;51.132;16.848;2023-02-14T06:40:23;5.95;;;4.50;;
21424;SDS011;10873;51.132;16.848;2023-02-14T06:42:49;6.32;;;4.28;;
21424;SDS011;10873;51.132;16.848;2023-02-14T06:45:15;4.65;;;3.72;;
21424;SDS011;10873;51.132;16.848;2023-02-14T06:47:41;5.30;;;3.88;;
21424;SDS011;10873;51.132;16.848;2023-02-14T06:50:07;4.25;;;3.60;;
21424;SDS011;10873;51.132;16.848;2023-02-14T06:52:36;5.25;;;3.40;;
21424;SDS011;10873;51.132;16.848;2023-02-14T06:55:02;3.90;;;3.13;;
21424;SDS011;10873;51.132;16.848;2023-02-14T06:57:30;7.15;;;3.85;;
21424;SDS011;10873;51.132;16.848;2023-02-14T06:59:56;4.47;;;2.90;;
21424;SDS011;10873;51.132;16.848;2023-02-14T07:02:22;6.53;;;3.17;;
21424;SDS011;10873;51.132;16.848;2023-02-14T07:04:48;6.35;;;3.00;;
21424;SDS011;10873;51.132;16.848;2023-02-14T07:07:14;5.15;;;3.33;;
21424;SDS011;10873;51.132;16.848;2023-02-14T07:09:40;3.58;;;3.10;;
21424;SDS011;10873;51.132;16.848;2023-02-14T07:12:06;3.10;;;2.80;;
21424;SDS011;10873;51.132;16.848;2023-02-14T07:14:33;6.20;;;3.33;;
21424;SDS011;10873;51.132;16.848;2023-02-14T07:16:59;6.53;;;3.10;;
21424;SDS011;10873;51.132;16.848;2023-02-14T07:19:25;9.63;;;2.85;;
21424;SDS011;10873;51.132;16.848;2023-02-14T07:21:51;3.78;;;3.00;;
21424;SDS011;10873;51.132;16.848;2023-02-14T07:24:17;6.68;;;3.10;;
21424;SDS011;10873;51.132;16.848;2023-02-14T07:26:44;6.03;;;3.40;;
21424;SDS011;10873;51.132;16.848;2023-02-14T07:29:10;4.15;;;3.08;;
21424;SDS011;10873;51.132;16.848;2023-02-14T07:31:37;7.50;;;3.20;;
21424;SDS011;10873;51.132;16.848;2023-02-14T07:34:03;5.03;;;2.80;;
21424;SDS011;10873;51.132;16.848;2023-02-14T07:36:29;4.55;;;3.08;;
21424;SDS011;10873;51.132;16.848;2023-02-14T07:38:55;5.68;;;2.88;;
21424;SDS011;10873;51.132;16.848;2023-02-14T07:41:22;3.63;;;2.97;;
21424;SDS011;10873;51.132;16.848;2023-02-14T07:43:48;4.28;;;2.92;;
21424;SDS011;10873;51.132;16.848;2023-02-14T07:46:15;4.57;;;3.30;;
21424;SDS011;10873;51.132;16.848;2023-02-14T07:48:42;4.97;;;3.13;;
21424;SDS011;10873;51.132;16.848;2023-02-14T07:51:09;6.90;;;2.70;;
21424;SDS011;10873;51.132;16.848;2023-02-14T07:53:35;4.03;;;2.70;;
21424;SDS011;10873;51.132;16.848;2023-02-14T07:56:01;7.82;;;3.20;;
21424;SDS011;10873;51.132;16.848;2023-02-14T07:58:27;4.22;;;3.05;;
21424;SDS011;10873;51.132;16.848;2023-02-14T08:00:53;5.30;;;3.10;;
21424;SDS011;10873;51.132;16.848;2023-02-14T08:03:19;7.80;;;3.33;;
21424;SDS011;10873;51.132;16.848;2023-02-14T08:05:48;7.70;;;2.95;;
21424;SDS011;10873;51.132;16.848;2023-02-14T08:08:22;7.00;;;3.45;;
21424;SDS011;10873;51.132;16.848;2023-02-14T08:10:49;6.72;;;3.45;;
21424;SDS011;10873;51.132;16.848;2023-02-14T08:13:15;5.65;;;3.17;;
21424;SDS011;10873;51.132;16.848;2023-02-14T08:15:41;4.00;;;3.00;;
21424;SDS011;10873;51.132;16.848;2023-02-14T08:18:25;4.90;;;3.28;;
21424;SDS011;10873;51.132;16.848;2023-02-14T08:20:53;6.60;;;3.38;;
21424;SDS011;10873;51.132;16.848;2023-02-14T08:23:19;5.57;;;3.33;;
21424;SDS011;10873;51.132;16.848;2023-02-14T08:25:46;8.30;;;3.28;;
21424;SDS011;10873;51.132;16.848;2023-02-14T08:28:13;5.18;;;3.28;;
21424;SDS011;10873;51.132;16.848;2023-02-14T08:30:40;5.63;;;3.55;;
21424;SDS011;10873;51.132;16.848;2023-02-14T08:33:06;4.43;;;3.13;;
21424;SDS011;10873;51.132;16.848;2023-02-14T08:35:33;6.50;;;3.28;;
21424;SDS011;10873;51.132;16.848;2023-02-14T08:38:01;5.93;;;2.97;;
21424;SDS011;10873;51.132;16.848;2023-02-14T08:40:27;3.10;;;2.80;;
21424;SDS011;10873;51.132;16.848;2023-02-14T08:42:53;5.15;;;3.47;;
21424;SDS011;10873;51.132;16.848;2023-02-14T08:45:20;3.65;;;3.00;;
21424;SDS011;10873;51.132;16.848;2023-02-14T08:47:46;4.22;;;3.30;;
21424;SDS011;10873;51.132;16.848;2023-02-14T08:50:13;4.13;;;2.97;;
21424;SDS011;10873;51.132;16.848;2023-02-14T08:52:41;3.30;;;2.95;;
21424;SDS011;10873;51.132;16.848;2023-02-14T08:55:12;3.15;;;2.72;;
21424;SDS011;10873;51.132;16.848;2023-02-14T08:57:38;4.07;;;2.83;;
21424;SDS011;10873;51.132;16.848;2023-02-14T09:00:05;5.22;;;3.17;;
21424;SDS011;10873;51.132;16.848;2023-02-14T09:02:32;5.40;;;2.90;;
21424;SDS011;10873;51.132;16.848;2023-02-14T09:04:59;4.00;;;3.35;;
21424;SDS011;10873;51.132;16.848;2023-02-14T09:07:25;4.57;;;3.10;;
21424;SDS011;10873;51.132;16.848;2023-02-14T09:09:51;3.92;;;2.78;;
21424;SDS011;10873;51.132;16.848;2023-02-14T09:12:18;3.55;;;2.92;;
21424;SDS011;10873;51.132;16.848;2023-02-14T09:14:44;4.43;;;3.13;;
21424;SDS011;10873;51.132;16.848;2023-02-14T09:17:10;3.28;;;2.70;;
21424;SDS011;10873;51.132;16.848;2023-02-14T09:19:37;5.80;;;2.88;;
21424;SDS011;10873;51.132;16.848;2023-02-14T09:22:04;3.97;;;2.75;;
21424;SDS011;10873;51.132;16.848;2023-02-14T09:24:32;3.95;;;2.88;;
21424;SDS011;10873;51.132;16.848;2023-02-14T09:26:59;3.80;;;2.90;;
21424;SDS011;10873;51.132;16.848;2023-02-14T09:29:27;4.32;;;2.70;;
21424;SDS011;10873;51.132;16.848;2023-02-14T09:31:53;3.38;;;2.80;;
21424;SDS011;10873;51.132;16.848;2023-02-14T09:34:20;4.22;;;2.90;;
21424;SDS011;10873;51.132;16.848;2023-02-14T09:37:05;5.07;;;2.70;;
21424;SDS011;10873;51.132;16.848;2023-02-14T09:39:31;4.03;;;3.00;;
21424;SDS011;10873;51.132;16.848;2023-02-14T09:42:02;5.78;;;2.97;;
21424;SDS011;10873;51.132;16.848;2023-02-14T09:44:41;4.60;;;2.70;;
21424;SDS011;10873;51.132;16.848;2023-02-14T09:47:11;3.92;;;2.70;;
21424;SDS011;10873;51.132;16.848;2023-02-14T09:49:43;4.57;;;2.92;;
21424;SDS011;10873;51.132;16.848;2023-02-14T09:52:11;5.30;;;2.90;;
21424;SDS011;10873;51.132;16.848;2023-02-14T09:54:40;4.03;;;2.70;;
21424;SDS011;10873;51.132;16.848;2023-02-14T09:57:10;4.97;;;3.10;;
21424;SDS011;10873;51.132;16.848;2023-02-14T09:59:48;5.45;;;2.85;;
21424;SDS011;10873;51.132;16.848;2023-02-14T10:02:21;3.15;;;2.63;;
21424;SDS011;10873;51.132;16.848;2023-02-14T10:05:02;4.43;;;3.15;;
21424;SDS011;10873;51.132;16.848;2023-02-14T10:07:39;4.18;;;3.10;;
21424;SDS011;10873;51.132;16.848;2023-02-14T10:10:15;4.03;;;3.15;;
21424;SDS011;10873;51.132;16.848;2023-02-14T10:12:49;3.17;;;2.58;;
21424;SDS011;10873;51.132;16.848;2023-02-14T10:15:19;2.97;;;2.55;;
21424;SDS011;10873;51.132;16.848;2023-02-14T10:17:48;3.38;;;2.58;;
21424;SDS011;10873;51.132;16.848;2023-02-14T10:20:21;4.82;;;2.70;;
21424;SDS011;10873;51.132;16.848;2023-02-14T10:22:54;3.60;;;2.42;;
21424;SDS011;10873;51.132;16.848;2023-02-14T10:25:27;4.88;;;2.72;;
21424;SDS011;10873;51.132;16.848;2023-02-14T10:27:57;3.78;;;2.75;;
21424;SDS011;10873;51.132;16.848;2023-02-14T10:30:27;4.13;;;2.90;;
21424;SDS011;10873;51.132;16.848;2023-02-14T10:33:04;5.82;;;3.20;;
21424;SDS011;10873;51.132;16.848;2023-02-14T10:35:37;3.80;;;3.03;;
21424;SDS011;10873;51.132;16.848;2023-02-14T10:38:10;3.85;;;3.10;;
21424;SDS011;10873;51.132;16.848;2023-02-14T10:40:48;4.45;;;3.10;;
21424;SDS011;10873;51.132;16.848;2023-02-14T10:43:30;5.82;;;3.42;;
21424;SDS011;10873;51.132;16.848;2023-02-14T10:46:06;4.85;;;3.00;;
21424;SDS011;10873;51.132;16.848;2023-02-14T10:48:43;3.33;;;2.75;;
21424;SDS011;10873;51.132;16.848;2023-02-14T10:51:20;7.00;;;2.97;;
21424;SDS011;10873;51.132;16.848;2023-02-14T10:53:58;6.20;;;3.15;;
21424;SDS011;10873;51.132;16.848;2023-02-14T10:56:34;4.13;;;3.20;;
21424;SDS011;10873;51.132;16.848;2023-02-14T10:59:07;4.95;;;3.50;;
21424;SDS011;10873;51.132;16.848;2023-02-14T11:01:45;5.97;;;3.50;;
21424;SDS011;10873;51.132;16.848;2023-02-14T11:04:11;10.07;;;3.38;;
21424;SDS011;10873;51.132;16.848;2023-02-14T11:06:40;8.27;;;3.50;;
21424;SDS011;10873;51.132;16.848;2023-02-14T11:09:06;4.28;;;3.13;;
21424;SDS011;10873;51.132;16.848;2023-02-14T11:11:34;5.97;;;3.67;;
21424;SDS011;10873;51.132;16.848;2023-02-14T11:14:17;6.82;;;3.67;;
21424;SDS011;10873;51.132;16.848;2023-02-14T11:16:51;9.48;;;4.13;;
21424;SDS011;10873;51.132;16.848;2023-02-14T11:19:20;7.13;;;3.80;;
21424;SDS011;10873;51.132;16.848;2023-02-14T11:21:48;7.90;;;4.30;;
21424;SDS011;10873;51.132;16.848;2023-02-14T11:24:15;8.00;;;4.13;;
21424;SDS011;10873;51.132;16.848;2023-02-14T11:26:44;8.75;;;3.92;;
21424;SDS011;10873;51.132;16.848;2023-02-14T11:29:12;9.15;;;3.95;;
21424;SDS011;10873;51.132;16.848;2023-02-14T11:31:40;7.40;;;3.80;;
21424;SDS011;10873;51.132;16.848;2023-02-14T11:34:17;8.95;;;3.97;;
21424;SDS011;10873;51.132;16.848;2023-02-14T11:36:49;8.82;;;3.85;;
21424;SDS011;10873;51.132;16.848;2023-02-14T11:39:20;8.98;;;3.50;;
21424;SDS011;10873;51.132;16.848;2023-02-14T11:41:54;8.30;;;3.65;;
21424;SDS011;10873;51.132;16.848;2023-02-14T11:44:21;7.60;;;3.50;;
21424;SDS011;10873;51.132;16.848;2023-02-14T11:46:49;8.35;;;3.63;;
21424;SDS011;10873;51.132;16.848;2023-02-14T11:49:24;14.15;;;4.78;;
21424;SDS011;10873;51.132;16.848;2023-02-14T11:51:55;15.70;;;4.53;;
21424;SDS011;10873;51.132;16.848;2023-02-14T11:54:33;19.58;;;4.97;;
21424;SDS011;10873;51.132;16.848;2023-02-14T11:57:02;12.98;;;5.80;;
21424;SDS011;10873;51.132;16.848;2023-02-14T11:59:32;18.73;;;5.70;;
21424;SDS011;10873;51.132;16.848;2023-02-14T12:02:11;16.42;;;5.47;;
21424;SDS011;10873;51.132;16.848;2023-02-14T12:04:47;20.63;;;6.40;;
21424;SDS011;10873;51.132;16.848;2023-02-14T12:07:22;18.80;;;6.13;;
21424;SDS011;10873;51.132;16.848;2023-02-14T12:10:05;16.38;;;6.18;;
21424;SDS011;10873;51.132;16.848;2023-02-14T12:12:44;13.77;;;5.10;;
21424;SDS011;10873;51.132;16.848;2023-02-14T12:15:22;12.18;;;5.18;;
21424;SDS011;10873;51.132;16.848;2023-02-14T12:18:04;19.23;;;5.57;;
21424;SDS011;10873;51.132;16.848;2023-02-14T12:20:44;10.60;;;5.18;;
21424;SDS011;10873;51.132;16.848;2023-02-14T12:23:17;9.75;;;4.85;;
21424;SDS011;10873;51.132;16.848;2023-02-14T12:25:50;11.52;;;5.28;;
21424;SDS011;10873;51.132;16.848;2023-02-14T12:28:24;10.35;;;4.43;;
21424;SDS011;10873;51.132;16.848;2023-02-14T12:30:55;10.35;;;4.82;;
21424;SDS011;10873;51.132;16.848;2023-02-14T12:33:21;12.68;;;4.82;;
21424;SDS011;10873;51.132;16.848;2023-02-14T12:35:53;9.60;;;4.68;;
21424;SDS011;10873;51.132;16.848;2023-02-14T12:38:29;10.15;;;4.30;;
21424;SDS011;10873;51.132;16.848;2023-02-14T12:41:06;8.75;;;4.55;;
21424;SDS011;10873;51.132;16.848;2023-02-14T12:43:55;8.32;;;4.32;;
21424;SDS011;10873;51.132;16.848;2023-02-14T12:49:25;9.75;;;4.22;;
21424;SDS011;10873;51.132;16.848;2023-02-14T12:52:09;10.52;;;4.50;;
21424;SDS011;10873;51.132;16.848;2023-02-14T12:54:53;11.50;;;4.30;;
21424;SDS011;10873;51.132;16.848;2023-02-14T12:57:30;10.55;;;4.30;;
21424;SDS011;10873;51.132;16.848;2023-02-14T13:00:10;7.78;;;4.13;;
21424;SDS011;10873;51.132;16.848;2023-02-14T13:02:51;8.73;;;3.55;;
21424;SDS011;10873;51.132;16.848;2023-02-14T13:05:30;11.63;;;4.30;;
21424;SDS011;10873;51.132;16.848;2023-02-14T13:08:13;8.52;;;3.90;;
21424;SDS011;10873;51.132;16.848;2023-02-14T13:10:54;9.20;;;4.05;;
21424;SDS011;10873;51.132;16.848;2023-02-14T13:13:31;10.80;;;3.92;;
21424;SDS011;10873;51.132;16.848;2023-02-14T13:16:07;6.90;;;3.85;;
21424;SDS011;10873;51.132;16.848;2023-02-14T13:18:43;9.05;;;4.28;;
21424;SDS011;10873;51.132;16.848;2023-02-14T13:21:16;6.88;;;3.30;;
21424;SDS011;10873;51.132;16.848;2023-02-14T13:23:47;9.70;;;3.72;;
21424;SDS011;10873;51.132;16.848;2023-02-14T13:26:18;7.55;;;3.28;;
21424;SDS011;10873;51.132;16.848;2023-02-14T13:28:48;7.90;;;3.95;;
21424;SDS011;10873;51.132;16.848;2023-02-14T13:31:17;7.80;;;3.67;;
21424;SDS011;10873;51.132;16.848;2023-02-14T13:33:45;8.75;;;3.42;;
21424;SDS011;10873;51.132;16.848;2023-02-14T13:36:14;10.88;;;3.70;;
21424;SDS011;10873;51.132;16.848;2023-02-14T13:38:42;6.75;;;3.50;;
21424;SDS011;10873;51.132;16.848;2023-02-14T13:41:11;7.13;;;3.20;;
21424;SDS011;10873;51.132;16.848;2023-02-14T13:43:52;5.85;;;2.92;;
21424;SDS011;10873;51.132;16.848;2023-02-14T13:49:22;7.85;;;3.30;;
21424;SDS011;10873;51.132;16.848;2023-02-14T13:51:51;5.45;;;3.03;;
21424;SDS011;10873;51.132;16.848;2023-02-14T13:54:27;5.95;;;3.28;;
21424;SDS011;10873;51.132;16.848;2023-02-14T13:56:57;7.75;;;3.22;;
21424;SDS011;10873;51.132;16.848;2023-02-14T13:59:25;6.65;;;3.00;;
21424;SDS011;10873;51.132;16.848;2023-02-14T14:01:54;5.25;;;3.00;;
21424;SDS011;10873;51.132;16.848;2023-02-14T14:04:33;4.90;;;2.85;;
21424;SDS011;10873;51.132;16.848;2023-02-14T14:07:16;7.70;;;3.35;;
21424;SDS011;10873;51.132;16.848;2023-02-14T14:09:59;8.93;;;2.83;;
21424;SDS011;10873;51.132;16.848;2023-02-14T14:12:42;7.60;;;2.65;;
21424;SDS011;10873;51.132;16.848;2023-02-14T14:15:09;5.82;;;2.67;;
21424;SDS011;10873;51.132;16.848;2023-02-14T14:17:38;5.97;;;2.92;;
21424;SDS011;10873;51.132;16.848;2023-02-14T14:23:22;10.32;;;4.97;;
21424;SDS011;10873;51.132;16.848;2023-02-14T14:25:53;10.80;;;6.70;;
21424;SDS011;10873;51.132;16.848;2023-02-14T14:28:21;9.98;;;7.05;;
21424;SDS011;10873;51.132;16.848;2023-02-14T14:30:49;11.88;;;7.50;;
21424;SDS011;10873;51.132;16.848;2023-02-14T14:33:22;15.07;;;8.98;;
21424;SDS011;10873;51.132;16.848;2023-02-14T14:35:51;15.15;;;9.80;;
21424;SDS011;10873;51.132;16.848;2023-02-14T14:38:18;17.83;;;10.25;;
21424;SDS011;10873;51.132;16.848;2023-02-14T14:40:44;15.55;;;9.90;;
21424;SDS011;10873;51.132;16.848;2023-02-14T14:43:13;15.70;;;10.40;;
21424;SDS011;10873;51.132;16.848;2023-02-14T14:45:45;18.02;;;11.43;;
21424;SDS011;10873;51.132;16.848;2023-02-14T14:48:15;20.95;;;12.10;;
21424;SDS011;10873;51.132;16.848;2023-02-14T14:50:46;17.77;;;11.68;;
21424;SDS011;10873;51.132;16.848;2023-02-14T14:53:18;17.73;;;12.65;;
21424;SDS011;10873;51.132;16.848;2023-02-14T14:55:46;19.45;;;12.98;;
21424;SDS011;10873;51.132;16.848;2023-02-14T14:58:34;18.60;;;13.50;;
21424;SDS011;10873;51.132;16.848;2023-02-14T15:01:04;22.15;;;14.43;;
21424;SDS011;10873;51.132;16.848;2023-02-14T15:03:32;21.48;;;15.10;;
21424;SDS011;10873;51.132;16.848;2023-02-14T15:06:03;21.80;;;15.30;;
21424;SDS011;10873;51.132;16.848;2023-02-14T15:08:33;21.42;;;14.82;;
21424;SDS011;10873;51.132;16.848;2023-02-14T15:11:00;21.23;;;14.50;;
21424;SDS011;10873;51.132;16.848;2023-02-14T15:13:32;23.83;;;15.27;;